createdAt,value
2017-10-22T00:02:26.856Z,17.77
2017-10-22T00:04:54.357Z,16.27
2017-10-22T00:07:21.860Z,7.23
2017-10-22T00:09:49.323Z,10.63
2017-10-22T00:12:17.050Z,13.73
2017-10-22T00:14:45.517Z,11.60
2017-10-22T00:17:13.004Z,16.73
2017-10-22T00:19:40.488Z,11.00
2017-10-22T00:22:08.736Z,8.17
2017-10-22T00:24:36.220Z,11.80
2017-10-22T00:27:04.451Z,11.80
2017-10-22T00:29:32.454Z,13.13
2017-10-22T00:31:59.932Z,12.03
2017-10-22T00:34:28.187Z,11.97
2017-10-22T00:36:55.665Z,21.43
2017-10-22T00:39:23.204Z,18.07
2017-10-22T00:41:51.488Z,13.80
2017-10-22T00:44:18.951Z,12.03
2017-10-22T00:46:47.188Z,14.80
2017-10-22T00:49:14.938Z,13.90
2017-10-22T00:51:42.414Z,15.90
2017-10-22T00:54:09.892Z,18.77
2017-10-22T00:56:37.436Z,16.27
2017-10-22T00:59:04.907Z,16.73
2017-10-22T01:01:32.372Z,14.00
2017-10-22T01:04:00.610Z,16.20
2017-10-22T01:06:28.596Z,16.17
2017-10-22T01:08:56.417Z,15.97
2017-10-22T01:11:25.247Z,11.20
2017-10-22T01:13:52.711Z,13.20
2017-10-22T01:16:20.961Z,35.80
2017-10-22T01:18:49.115Z,23.00
2017-10-22T01:21:16.669Z,21.27
2017-10-22T01:23:44.444Z,16.63
2017-10-22T01:26:11.943Z,12.60
2017-10-22T01:28:39.442Z,15.70
2017-10-22T01:31:06.918Z,21.40
2017-10-22T01:33:34.466Z,12.77
2017-10-22T01:36:01.943Z,17.93
2017-10-22T01:38:29.436Z,10.97
2017-10-22T01:40:57.706Z,17.67
2017-10-22T01:43:26.038Z,21.10
2017-10-22T01:45:53.498Z,13.63
2017-10-22T01:48:21.000Z,14.13
2017-10-22T01:50:48.550Z,11.73
2017-10-22T01:53:17.178Z,16.57
2017-10-22T01:55:44.730Z,12.77
2017-10-22T01:58:12.240Z,15.87
2017-10-22T02:00:39.717Z,11.23
2017-10-22T02:03:07.179Z,16.53
2017-10-22T02:05:35.472Z,18.23
2017-10-22T02:08:02.949Z,14.93
2017-10-22T02:10:30.475Z,16.10
2017-10-22T02:12:58.720Z,28.17
2017-10-22T02:15:27.014Z,10.47
2017-10-22T02:17:54.549Z,13.43
2017-10-22T02:20:22.118Z,15.90
2017-10-22T02:22:49.587Z,16.73
2017-10-22T02:25:17.139Z,13.30
2017-10-22T02:27:44.612Z,13.07
2017-10-22T02:30:12.853Z,16.40
2017-10-22T02:32:40.875Z,23.27
2017-10-22T02:35:08.352Z,9.23
2017-10-22T02:37:35.836Z,19.83
2017-10-22T02:40:04.680Z,12.03
2017-10-22T02:42:32.255Z,10.03
2017-10-22T02:44:59.724Z,24.37
2017-10-22T02:47:27.224Z,18.87
2017-10-22T02:49:55.136Z,21.60
2017-10-22T02:52:22.804Z,14.03
2017-10-22T02:54:50.572Z,14.07
2017-10-22T02:57:18.427Z,16.57
2017-10-22T02:59:46.719Z,15.77
2017-10-22T03:02:14.195Z,8.80
2017-10-22T03:04:41.702Z,16.10
2017-10-22T03:07:09.482Z,16.17
2017-10-22T03:09:37.180Z,15.83
2017-10-22T03:12:04.765Z,14.10
2017-10-22T03:14:33.032Z,12.40
2017-10-22T03:17:02.003Z,16.43
2017-10-22T03:19:29.488Z,21.30
2017-10-22T03:21:57.731Z,17.10
2017-10-22T03:24:25.212Z,22.17
2017-10-22T03:26:53.447Z,24.80
2017-10-22T03:29:20.943Z,14.83
2017-10-22T03:31:48.504Z,22.27
2017-10-22T03:34:16.063Z,21.33
2017-10-22T03:36:43.623Z,17.47
2017-10-22T03:39:11.895Z,17.70
2017-10-22T03:41:39.446Z,27.10
2017-10-22T03:44:06.919Z,18.00
2017-10-22T03:46:35.191Z,30.87
2017-10-22T03:49:03.439Z,21.00
2017-10-22T03:51:30.913Z,23.73
2017-10-22T03:53:58.376Z,28.23
2017-10-22T03:56:26.099Z,26.57
2017-10-22T03:58:53.596Z,20.90
2017-10-22T04:01:21.410Z,25.37
2017-10-22T04:03:48.888Z,25.07
2017-10-22T04:06:16.360Z,26.10
2017-10-22T04:08:43.903Z,26.80
2017-10-22T04:11:11.377Z,24.30
2017-10-22T04:13:39.224Z,30.10
2017-10-22T04:16:07.008Z,18.47
2017-10-22T04:18:34.786Z,33.83
2017-10-22T04:21:03.001Z,32.10
2017-10-22T04:23:30.788Z,25.40
2017-10-22T04:25:58.623Z,20.33
2017-10-22T04:28:26.141Z,22.93
2017-10-22T04:30:53.603Z,21.10
2017-10-22T04:33:21.915Z,29.33
2017-10-22T04:35:49.440Z,20.90
2017-10-22T04:40:48.712Z,15.20
2017-10-22T04:43:16.187Z,26.70
2017-10-22T04:45:43.655Z,21.80
2017-10-22T04:48:11.479Z,15.73
2017-10-22T04:50:38.991Z,17.07
2017-10-22T04:53:06.540Z,23.90
2017-10-22T04:55:34.107Z,21.93
2017-10-22T04:58:01.575Z,18.13
2017-10-22T05:00:29.828Z,21.70
2017-10-22T05:02:57.286Z,23.90
2017-10-22T05:05:24.754Z,21.27
2017-10-22T05:07:52.291Z,28.87
2017-10-22T05:10:19.979Z,23.63
2017-10-22T05:12:47.444Z,31.80
2017-10-22T05:15:15.682Z,32.67
2017-10-22T05:17:43.143Z,24.93
2017-10-22T05:20:11.689Z,28.10
2017-10-22T05:22:39.163Z,16.67
2017-10-22T05:25:06.644Z,23.80
2017-10-22T05:27:35.226Z,23.60
2017-10-22T05:30:03.568Z,25.03
2017-10-22T05:32:31.292Z,28.73
2017-10-22T05:34:59.567Z,23.57
2017-10-22T05:37:27.812Z,20.73
2017-10-22T05:39:55.421Z,18.60
2017-10-22T05:42:22.951Z,19.43
2017-10-22T05:44:50.421Z,17.67
2017-10-22T05:47:18.648Z,18.30
2017-10-22T05:49:46.138Z,21.57
2017-10-22T05:52:13.611Z,23.63
2017-10-22T05:54:41.871Z,20.27
2017-10-22T05:57:09.341Z,21.93
2017-10-22T05:59:37.575Z,19.50
2017-10-22T06:02:05.333Z,29.77
2017-10-22T06:04:32.800Z,26.83
2017-10-22T06:07:01.168Z,24.83
2017-10-22T06:09:28.628Z,11.00
2017-10-22T06:11:56.151Z,13.83
2017-10-22T06:14:24.027Z,11.53
2017-10-22T06:16:51.482Z,9.50
2017-10-22T06:19:19.394Z,12.63
2017-10-22T06:21:48.374Z,17.07
2017-10-22T06:24:15.904Z,21.50
2017-10-22T06:26:43.973Z,19.27
2017-10-22T06:29:11.464Z,14.07
2017-10-22T06:31:38.939Z,21.53
2017-10-22T06:34:06.416Z,12.23
2017-10-22T06:36:34.653Z,11.00
2017-10-22T06:39:02.123Z,20.43
2017-10-22T06:41:29.626Z,11.63
2017-10-22T06:43:57.101Z,16.23
2017-10-22T06:46:24.576Z,12.70
2017-10-22T06:48:52.255Z,11.47
2017-10-22T06:51:19.928Z,8.83
2017-10-22T06:53:47.755Z,14.13
2017-10-22T06:56:15.220Z,11.87
2017-10-22T06:58:43.160Z,20.30
2017-10-22T07:01:10.623Z,23.23
2017-10-22T07:03:38.083Z,17.93
2017-10-22T07:06:05.684Z,15.80
2017-10-22T07:08:33.142Z,17.33
2017-10-22T07:11:01.380Z,12.10
2017-10-22T07:13:28.878Z,7.87
2017-10-22T07:15:56.423Z,14.07
2017-10-22T07:18:23.900Z,12.90
2017-10-22T07:20:52.172Z,10.13
2017-10-22T07:23:19.638Z,20.23
2017-10-22T07:25:48.506Z,7.40
2017-10-22T07:28:16.064Z,17.50
2017-10-22T07:30:43.633Z,10.73
2017-10-22T07:33:11.874Z,16.83
2017-10-22T07:35:40.181Z,11.43
2017-10-22T07:38:07.652Z,12.60
2017-10-22T07:40:35.886Z,18.60
2017-10-22T07:43:03.364Z,9.37
2017-10-22T07:45:30.839Z,9.47
2017-10-22T07:47:59.080Z,10.40
2017-10-22T07:50:26.547Z,10.40
2017-10-22T07:52:54.026Z,8.23
2017-10-22T07:55:22.311Z,13.43
2017-10-22T07:57:50.571Z,14.20
2017-10-22T08:00:18.836Z,10.37
2017-10-22T08:02:46.294Z,6.77
2017-10-22T08:05:13.852Z,16.33
2017-10-22T08:07:41.313Z,6.77
2017-10-22T08:10:09.539Z,14.97
2017-10-22T08:12:37.028Z,9.03
2017-10-22T08:15:04.526Z,16.37
2017-10-22T08:17:32.750Z,9.73
2017-10-22T08:20:00.339Z,8.80
2017-10-22T08:22:28.589Z,12.47
2017-10-22T08:24:56.052Z,13.90
2017-10-22T08:27:23.618Z,10.83
2017-10-22T08:29:51.889Z,19.50
2017-10-22T08:32:19.439Z,19.80
2017-10-22T08:34:46.925Z,15.50
2017-10-22T08:37:14.658Z,15.70
2017-10-22T08:42:47.217Z,10.63
2017-10-22T08:45:14.684Z,9.60
2017-10-22T08:47:42.161Z,10.17
2017-10-22T08:50:09.635Z,9.83
2017-10-22T08:52:37.119Z,11.30
2017-10-22T08:55:05.371Z,6.63
2017-10-22T08:57:33.608Z,10.20
2017-10-22T09:00:01.084Z,15.73
2017-10-22T09:02:28.654Z,11.73
2017-10-22T09:04:56.121Z,9.13
2017-10-22T09:07:23.583Z,8.60
2017-10-22T09:09:51.824Z,12.43
2017-10-22T09:12:19.284Z,8.33
2017-10-22T09:14:46.760Z,11.57
2017-10-22T09:17:14.435Z,13.77
2017-10-22T09:19:42.668Z,13.37
2017-10-22T09:22:10.131Z,9.63
2017-10-22T09:24:37.612Z,8.93
2017-10-22T09:27:05.072Z,16.20
2017-10-22T09:29:33.436Z,12.97
2017-10-22T09:32:00.904Z,9.53
2017-10-22T09:34:28.381Z,11.80
2017-10-22T09:36:56.684Z,9.63
2017-10-22T09:39:24.150Z,14.50
2017-10-22T09:41:51.687Z,4.80
2017-10-22T09:44:19.179Z,17.97
2017-10-22T09:46:46.647Z,11.00
2017-10-22T09:49:14.124Z,5.73
2017-10-22T09:51:42.404Z,7.30
2017-10-22T09:54:09.880Z,12.67
2017-10-22T09:56:38.114Z,6.13
2017-10-22T09:59:06.184Z,10.43
2017-10-22T10:01:33.654Z,8.77
2017-10-22T10:04:01.124Z,7.07
2017-10-22T10:06:29.346Z,13.30
2017-10-22T10:08:56.828Z,9.10
2017-10-22T10:11:24.296Z,7.17
2017-10-22T10:13:51.765Z,16.40
2017-10-22T10:16:19.283Z,13.70
2017-10-22T10:18:46.756Z,8.60
2017-10-22T10:21:14.232Z,23.47
2017-10-22T10:23:42.383Z,17.00
2017-10-22T10:26:09.873Z,16.30
2017-10-22T10:28:38.099Z,10.33
2017-10-22T10:31:05.585Z,8.53
2017-10-22T10:33:33.061Z,13.10
2017-10-22T10:36:01.326Z,6.83
2017-10-22T10:38:29.598Z,3.67
2017-10-22T10:40:57.167Z,4.77
2017-10-22T10:43:24.652Z,11.43
2017-10-22T10:45:53.001Z,15.53
2017-10-22T10:48:20.580Z,8.13
2017-10-22T10:50:48.807Z,15.53
2017-10-22T10:53:16.336Z,8.80
2017-10-22T10:55:43.893Z,6.30
2017-10-22T10:58:11.376Z,10.43
2017-10-22T11:00:38.844Z,10.57
2017-10-22T11:03:06.472Z,13.40
2017-10-22T11:05:33.946Z,10.20
2017-10-22T11:08:01.412Z,19.53
2017-10-22T11:10:28.883Z,14.70
2017-10-22T11:12:56.363Z,10.93
2017-10-22T11:15:25.227Z,7.77
2017-10-22T11:17:52.706Z,7.67
2017-10-22T11:20:20.948Z,9.23
2017-10-22T11:22:48.411Z,32.10
2017-10-22T11:25:15.883Z,8.23
2017-10-22T11:27:43.338Z,7.63
2017-10-22T11:30:10.798Z,8.47
2017-10-22T11:32:38.270Z,10.33
2017-10-22T11:35:06.506Z,10.80
2017-10-22T11:37:33.959Z,7.17
2017-10-22T11:40:01.447Z,13.93
2017-10-22T11:42:28.900Z,14.83
2017-10-22T11:44:56.356Z,6.17
2017-10-22T11:47:23.839Z,11.50
2017-10-22T11:49:51.318Z,10.03
2017-10-22T11:52:19.153Z,14.03
2017-10-22T11:54:47.387Z,10.83
2017-10-22T11:57:14.863Z,13.50
2017-10-22T11:59:42.319Z,7.93
2017-10-22T12:02:09.794Z,12.47
2017-10-22T12:04:38.023Z,18.90
2017-10-22T12:07:05.975Z,11.80
2017-10-22T12:09:33.449Z,11.27
2017-10-22T12:12:00.914Z,7.40
2017-10-22T12:14:28.363Z,8.80
2017-10-22T12:16:55.947Z,6.10
2017-10-22T12:19:23.407Z,13.77
2017-10-22T12:21:50.968Z,11.27
2017-10-22T12:24:18.446Z,9.53
2017-10-22T12:26:46.686Z,8.40
2017-10-22T12:29:14.146Z,15.83
2017-10-22T12:31:41.618Z,8.70
2017-10-22T12:34:10.243Z,7.27
2017-10-22T12:36:37.694Z,7.97
2017-10-22T12:39:05.172Z,12.50
2017-10-22T12:41:32.891Z,10.10
2017-10-22T12:44:01.311Z,19.77
2017-10-22T12:46:28.788Z,15.50
2017-10-22T12:48:56.255Z,8.83
2017-10-22T12:51:23.715Z,9.77
2017-10-22T12:53:51.200Z,15.40
2017-10-22T12:56:19.436Z,11.03
2017-10-22T12:58:46.900Z,13.60
2017-10-22T13:01:14.395Z,5.73
2017-10-22T13:03:42.619Z,13.93
2017-10-22T13:06:10.091Z,19.73
2017-10-22T13:08:37.575Z,13.23
2017-10-22T13:11:05.804Z,5.70
2017-10-22T13:13:33.259Z,12.03
2017-10-22T13:16:00.763Z,15.40
2017-10-22T13:18:28.992Z,6.80
2017-10-22T13:20:56.447Z,7.50
2017-10-22T13:23:24.403Z,14.73
2017-10-22T13:25:51.878Z,15.70
2017-10-22T13:28:19.363Z,11.23
2017-10-22T13:30:47.612Z,6.50
2017-10-22T13:33:15.087Z,10.30
2017-10-22T13:35:42.556Z,8.97
2017-10-22T13:38:10.795Z,8.90
2017-10-22T13:40:38.256Z,10.20
2017-10-22T13:43:06.258Z,7.03
2017-10-22T13:45:34.511Z,13.13
2017-10-22T13:48:02.683Z,9.20
2017-10-22T13:50:30.147Z,8.97
2017-10-22T13:52:57.712Z,11.40
2017-10-22T13:55:25.164Z,7.73
2017-10-22T13:57:52.628Z,9.03
2017-10-22T14:00:20.182Z,7.57
2017-10-22T14:02:47.731Z,16.17
2017-10-22T14:05:15.199Z,18.63
2017-10-22T14:07:42.706Z,12.20
2017-10-22T14:10:10.180Z,15.40
2017-10-22T14:12:37.660Z,11.37
2017-10-22T14:15:05.144Z,11.67
2017-10-22T14:17:33.395Z,10.57
2017-10-22T14:20:00.910Z,16.23
2017-10-22T14:22:28.413Z,6.10
2017-10-22T14:24:55.975Z,10.20
2017-10-22T14:27:23.440Z,10.77
2017-10-22T14:29:51.682Z,7.60
2017-10-22T14:32:19.144Z,10.67
2017-10-22T14:34:46.637Z,15.20
2017-10-22T14:37:14.912Z,19.90
2017-10-22T14:39:43.141Z,22.53
2017-10-22T14:42:10.599Z,11.67
2017-10-22T14:44:38.113Z,11.30
2017-10-22T14:47:07.111Z,10.60
2017-10-22T14:49:34.580Z,12.20
2017-10-22T14:52:02.113Z,9.67
2017-10-22T14:54:30.375Z,7.37
2017-10-22T14:56:58.608Z,8.07
2017-10-22T14:59:26.095Z,13.53
2017-10-22T15:01:53.561Z,12.67
2017-10-22T15:04:21.616Z,10.63
2017-10-22T15:06:49.098Z,9.70
2017-10-22T15:09:17.348Z,9.27
2017-10-22T15:11:45.667Z,9.93
2017-10-22T15:14:13.241Z,12.80
2017-10-22T15:16:40.699Z,9.57
2017-10-22T15:19:08.180Z,7.73
2017-10-22T15:21:35.656Z,8.47
2017-10-22T15:24:03.119Z,15.33
2017-10-22T15:26:30.604Z,17.17
2017-10-22T15:28:58.089Z,20.20
2017-10-22T15:31:25.590Z,14.17
2017-10-22T15:33:53.063Z,11.67
2017-10-22T15:36:21.344Z,7.50
2017-10-22T15:38:49.596Z,15.47
2017-10-22T15:41:17.105Z,10.57
2017-10-22T15:43:45.309Z,11.57
2017-10-22T15:46:12.896Z,18.63
2017-10-22T15:48:40.347Z,15.20
2017-10-22T15:51:07.815Z,7.83
2017-10-22T15:53:36.043Z,11.60
2017-10-22T15:56:03.535Z,13.23
2017-10-22T15:58:31.097Z,20.73
2017-10-22T16:00:59.347Z,9.93
2017-10-22T16:03:26.805Z,10.47
2017-10-22T16:05:54.384Z,20.17
2017-10-22T16:08:21.831Z,18.23
2017-10-22T16:10:49.402Z,12.83
2017-10-22T16:13:16.974Z,22.80
2017-10-22T16:15:45.236Z,10.33
2017-10-22T16:18:14.203Z,11.07
2017-10-22T16:20:41.675Z,12.07
2017-10-22T16:23:09.242Z,12.73
2017-10-22T16:25:36.705Z,14.67
2017-10-22T16:28:04.184Z,9.37
2017-10-22T16:30:32.408Z,9.50
2017-10-22T16:32:59.888Z,15.47
2017-10-22T16:35:27.417Z,12.97
2017-10-22T16:37:54.871Z,8.83
2017-10-22T16:40:22.382Z,16.00
2017-10-22T16:42:50.910Z,10.77
2017-10-22T16:45:18.367Z,9.83
2017-10-22T16:47:45.831Z,9.30
2017-10-22T16:50:13.344Z,11.97
2017-10-22T16:52:42.189Z,12.90
2017-10-22T16:55:09.772Z,11.07
2017-10-22T16:57:38.024Z,11.60
2017-10-22T17:00:06.401Z,13.83
2017-10-22T17:02:33.863Z,13.27
2017-10-22T17:05:01.353Z,11.13
2017-10-22T17:07:29.588Z,12.83
2017-10-22T17:09:57.055Z,16.90
2017-10-22T17:12:25.248Z,8.27
2017-10-22T17:14:53.467Z,9.37
2017-10-22T17:17:22.169Z,10.90
2017-10-22T17:19:49.652Z,13.33
2017-10-22T17:22:17.895Z,13.70
2017-10-22T17:24:46.135Z,13.03
2017-10-22T17:27:13.925Z,5.00
2017-10-22T17:29:42.456Z,12.93
2017-10-22T17:32:10.773Z,11.73
2017-10-22T17:34:38.285Z,19.70
2017-10-22T17:37:05.850Z,16.03
2017-10-22T17:39:34.083Z,13.40
2017-10-22T17:42:01.609Z,9.20
2017-10-22T17:44:29.132Z,14.93
2017-10-22T17:46:56.588Z,13.33
2017-10-22T17:49:24.301Z,11.07
2017-10-22T17:51:51.760Z,10.13
2017-10-22T17:54:19.219Z,13.53
2017-10-22T17:56:46.713Z,16.60
2017-10-22T17:59:14.286Z,17.53
2017-10-22T18:01:42.091Z,12.97
2017-10-22T18:04:09.568Z,21.63
2017-10-22T18:06:37.034Z,16.20
2017-10-22T18:09:04.991Z,19.57
2017-10-22T18:11:32.485Z,22.03
2017-10-22T18:13:59.940Z,33.87
2017-10-22T18:16:27.404Z,22.50
2017-10-22T18:18:55.676Z,26.70
2017-10-22T18:21:23.944Z,25.90
2017-10-22T18:23:51.505Z,13.57
2017-10-22T18:26:19.064Z,17.40
2017-10-22T18:28:46.613Z,20.73
2017-10-22T18:31:14.080Z,21.47
2017-10-22T18:33:42.175Z,21.43
2017-10-22T18:36:10.401Z,20.50
2017-10-22T18:38:37.860Z,21.80
2017-10-22T18:41:05.340Z,16.40
2017-10-22T18:43:32.794Z,25.23
2017-10-22T18:46:00.360Z,25.30
2017-10-22T18:48:27.859Z,26.33
2017-10-22T18:50:55.328Z,22.33
2017-10-22T18:53:22.811Z,24.90
2017-10-22T18:55:50.385Z,26.07
2017-10-22T18:58:17.944Z,20.70
2017-10-22T19:00:45.414Z,21.77
2017-10-22T19:03:12.887Z,17.50
2017-10-22T19:05:40.351Z,25.53
2017-10-22T19:08:07.818Z,30.57
2017-10-22T19:10:35.319Z,18.47
2017-10-22T19:13:02.779Z,27.17
2017-10-22T19:15:31.014Z,28.90
2017-10-22T19:17:58.516Z,26.73
2017-10-22T19:20:26.705Z,25.23
2017-10-22T19:22:54.954Z,40.73
2017-10-22T19:25:22.447Z,31.20
2017-10-22T19:27:50.684Z,31.17
2017-10-22T19:30:18.438Z,37.90
2017-10-22T19:32:45.899Z,22.27
2017-10-22T19:35:13.372Z,27.43
2017-10-22T19:37:41.504Z,27.93
2017-10-22T19:40:09.000Z,17.73
2017-10-22T19:42:37.235Z,24.27
2017-10-22T19:45:04.699Z,27.43
2017-10-22T19:47:32.197Z,24.03
2017-10-22T19:49:59.700Z,35.10
2017-10-22T19:52:27.758Z,33.27
2017-10-22T19:54:55.244Z,24.50
2017-10-22T19:57:22.716Z,25.87
2017-10-22T19:59:50.195Z,24.60
2017-10-22T20:02:17.658Z,28.03
2017-10-22T20:04:45.116Z,40.87
2017-10-22T20:07:13.408Z,25.40
2017-10-22T20:09:42.457Z,32.10
2017-10-22T20:12:09.936Z,29.47
2017-10-22T20:14:37.409Z,33.17
2017-10-22T20:17:05.655Z,27.90
2017-10-22T20:19:33.119Z,25.13
2017-10-22T20:22:00.692Z,33.10
2017-10-22T20:24:28.971Z,26.23
2017-10-22T20:26:57.210Z,25.93
2017-10-22T20:29:24.692Z,19.23
2017-10-22T20:31:52.163Z,19.50
2017-10-22T20:34:20.404Z,28.87
2017-10-22T20:36:47.888Z,27.37
2017-10-22T20:39:16.148Z,34.73
2017-10-22T20:41:43.965Z,28.87
2017-10-22T20:44:11.439Z,30.50
2017-10-22T20:46:38.907Z,31.93
2017-10-22T20:49:07.144Z,19.47
2017-10-22T20:51:34.618Z,28.20
2017-10-22T20:54:02.121Z,19.27
2017-10-22T20:56:30.303Z,22.03
2017-10-22T20:58:58.623Z,27.40
2017-10-22T21:01:29.804Z,19.33
2017-10-22T21:03:57.343Z,20.27
2017-10-22T21:06:25.628Z,22.67
2017-10-22T21:08:53.632Z,20.23
2017-10-22T21:11:22.568Z,16.73
2017-10-22T21:13:50.088Z,27.00
2017-10-22T21:16:18.501Z,21.30
2017-10-22T21:18:46.679Z,17.67
2017-10-22T21:21:14.844Z,21.60
2017-10-22T21:23:42.416Z,19.10
2017-10-22T21:26:09.903Z,38.30
2017-10-22T21:28:37.370Z,21.80
2017-10-22T21:31:05.973Z,19.63
2017-10-22T21:33:34.202Z,25.63
2017-10-22T21:36:01.780Z,18.30
2017-10-22T21:38:29.246Z,30.13
2017-10-22T21:40:57.869Z,16.70
2017-10-22T21:43:25.345Z,20.73
2017-10-22T21:45:52.847Z,28.37
2017-10-22T21:48:21.095Z,25.30
2017-10-22T21:50:48.688Z,15.83
2017-10-22T21:53:16.937Z,13.03
2017-10-22T21:55:45.347Z,16.83
2017-10-22T21:58:13.600Z,12.27
2017-10-22T22:00:41.075Z,19.20
2017-10-22T22:03:08.620Z,21.17
2017-10-22T22:05:36.095Z,29.63
2017-10-22T22:08:04.343Z,17.87
2017-10-22T22:10:33.331Z,23.33
2017-10-22T22:13:00.900Z,21.53
2017-10-22T22:15:28.620Z,20.07
2017-10-22T22:17:56.102Z,33.50
2017-10-22T22:20:23.608Z,19.70
2017-10-22T22:22:51.132Z,23.63
2017-10-22T22:25:20.120Z,32.87
2017-10-22T22:27:47.602Z,20.97
2017-10-22T22:30:15.856Z,20.43
2017-10-22T22:32:43.466Z,13.47
2017-10-22T22:35:10.944Z,17.97
2017-10-22T22:37:38.418Z,19.40
2017-10-22T22:40:06.713Z,25.40
2017-10-22T22:42:34.268Z,17.00
2017-10-22T22:45:01.744Z,23.63
2017-10-22T22:47:30.680Z,19.90
2017-10-22T22:49:58.160Z,21.57
2017-10-22T22:52:25.827Z,22.63
2017-10-22T22:54:53.390Z,18.17
2017-10-22T22:57:20.947Z,30.80
2017-10-22T22:59:49.193Z,16.07
2017-10-22T23:02:16.664Z,25.20
2017-10-22T23:04:47.849Z,25.17
2017-10-22T23:07:16.084Z,18.03
2017-10-22T23:09:43.917Z,16.90
2017-10-22T23:12:11.424Z,21.17
2017-10-22T23:14:38.912Z,18.70
2017-10-22T23:17:07.147Z,26.90
2017-10-22T23:19:35.631Z,21.13
2017-10-22T23:22:03.137Z,19.43
2017-10-22T23:24:30.603Z,26.10
2017-10-22T23:26:58.089Z,18.90
2017-10-22T23:29:26.382Z,30.27
2017-10-22T23:31:53.872Z,16.67
2017-10-22T23:34:21.755Z,28.47
2017-10-22T23:36:49.223Z,20.20
2017-10-22T23:39:16.717Z,20.73
2017-10-22T23:41:44.291Z,16.30
2017-10-22T23:44:13.532Z,20.47
2017-10-22T23:46:41.030Z,23.10
2017-10-22T23:49:08.605Z,17.03
2017-10-22T23:51:36.855Z,21.57
2017-10-22T23:54:04.331Z,22.53
2017-10-22T23:56:32.246Z,9.57
2017-10-22T23:58:59.757Z,20.27
